createdAt,value
2023-02-26T00:00:55.246Z,16.60
2023-02-26T00:01:55.240Z,16.90
2023-02-26T00:02:55.277Z,12.30
2023-02-26T00:03:55.202Z,13.70
2023-02-26T00:04:55.213Z,7.30
2023-02-26T00:05:55.171Z,6.80
2023-02-26T00:06:55.847Z,4.80
2023-02-26T00:07:55.155Z,6.20
2023-02-26T00:08:55.196Z,5.50
2023-02-26T00:09:55.162Z,5.50
2023-02-26T00:10:55.130Z,4.60
2023-02-26T00:11:55.123Z,3.60
2023-02-26T00:12:55.144Z,7.00
2023-02-26T00:13:55.105Z,6.90
2023-02-26T00:14:55.116Z,6.10
2023-02-26T00:15:55.061Z,4.50
2023-02-26T00:16:55.129Z,4.60
2023-02-26T00:17:56.874Z,4.70
2023-02-26T00:18:55.066Z,4.70
2023-02-26T00:19:55.046Z,3.90
2023-02-26T00:20:55.017Z,3.60
2023-02-26T00:21:55.010Z,4.40
2023-02-26T00:22:54.989Z,4.80
2023-02-26T00:23:54.981Z,5.20
2023-02-26T00:24:55.010Z,5.10
2023-02-26T00:25:54.975Z,4.80
2023-02-26T00:26:54.946Z,3.30
2023-02-26T00:27:54.946Z,3.80
2023-02-26T00:28:54.945Z,3.70
2023-02-26T00:29:54.946Z,3.90
2023-02-26T00:30:54.920Z,3.80
2023-02-26T00:31:54.984Z,4.30
2023-02-26T00:32:54.874Z,5.10
2023-02-26T00:33:54.878Z,4.80
2023-02-26T00:34:54.894Z,4.60
2023-02-26T00:35:54.857Z,3.60
2023-02-26T00:36:54.869Z,4.80
2023-02-26T00:37:54.840Z,3.00
2023-02-26T00:38:54.844Z,3.30
2023-02-26T00:39:54.820Z,3.30
2023-02-26T00:40:54.837Z,3.10
2023-02-26T00:41:54.777Z,3.90
2023-02-26T00:42:54.814Z,5.00
2023-02-26T00:43:54.785Z,7.70
2023-02-26T00:44:54.835Z,10.10
2023-02-26T00:45:54.778Z,9.10
2023-02-26T00:46:54.764Z,8.50
2023-02-26T00:47:54.726Z,7.50
2023-02-26T00:48:54.761Z,7.20
2023-02-26T00:49:54.720Z,7.00
2023-02-26T00:50:54.712Z,5.30
2023-02-26T00:51:54.681Z,4.90
2023-02-26T00:52:54.712Z,5.20
2023-02-26T00:53:54.658Z,4.80
2023-02-26T00:54:54.702Z,4.00
2023-02-26T00:55:54.635Z,4.70
2023-02-26T00:56:54.648Z,4.10
2023-02-26T00:57:54.617Z,4.00
2023-02-26T00:58:54.621Z,3.60
2023-02-26T00:59:54.619Z,3.20
2023-02-26T01:00:54.616Z,2.90
2023-02-26T01:01:54.593Z,3.10
2023-02-26T01:02:54.584Z,2.40
2023-02-26T01:03:54.595Z,2.60
2023-02-26T01:04:54.567Z,2.90
2023-02-26T01:05:54.541Z,2.80
2023-02-26T01:06:54.529Z,2.80
2023-02-26T01:07:54.503Z,2.10
2023-02-26T01:08:54.514Z,2.30
2023-02-26T01:09:54.496Z,2.50
2023-02-26T01:10:54.493Z,4.70
2023-02-26T01:11:54.492Z,5.60
2023-02-26T01:12:54.440Z,6.60
2023-02-26T01:13:54.452Z,6.90
2023-02-26T01:14:54.442Z,7.50
2023-02-26T01:15:54.498Z,6.80
2023-02-26T01:16:54.426Z,6.00
2023-02-26T01:17:54.402Z,5.00
2023-02-26T01:18:54.404Z,4.00
2023-02-26T01:19:54.429Z,3.70
2023-02-26T01:20:54.365Z,3.90
2023-02-26T01:21:54.357Z,4.10
2023-02-26T01:22:54.343Z,3.50
2023-02-26T01:23:54.348Z,4.40
2023-02-26T01:24:54.330Z,3.80
2023-02-26T01:25:54.325Z,3.50
2023-02-26T01:26:54.294Z,3.10
2023-02-26T01:27:54.298Z,4.20
2023-02-26T01:28:54.280Z,5.30
2023-02-26T01:29:54.334Z,4.60
2023-02-26T01:30:54.379Z,5.50
2023-02-26T01:31:54.568Z,5.00
2023-02-26T01:32:54.230Z,4.50
2023-02-26T01:33:54.270Z,4.10
2023-02-26T01:34:54.237Z,4.10
2023-02-26T01:35:54.257Z,3.70
2023-02-26T01:36:54.245Z,3.90
2023-02-26T01:37:54.199Z,5.00
2023-02-26T01:38:54.164Z,4.80
2023-02-26T01:39:54.216Z,4.30
2023-02-26T01:40:54.146Z,3.20
2023-02-26T01:41:54.168Z,3.10
2023-02-26T01:42:54.140Z,2.60
2023-02-26T01:43:54.131Z,2.30
2023-02-26T01:44:54.123Z,2.70
2023-02-26T01:45:54.186Z,3.60
2023-02-26T01:46:54.097Z,4.20
2023-02-26T01:47:54.109Z,3.70
2023-02-26T01:48:54.063Z,3.40
2023-02-26T01:49:54.081Z,2.70
2023-02-26T01:50:54.038Z,2.80
2023-02-26T01:51:54.067Z,3.40
2023-02-26T01:52:54.020Z,4.00
2023-02-26T01:53:54.029Z,3.20
2023-02-26T01:54:54.012Z,4.00
2023-02-26T01:55:54.013Z,3.00
2023-02-26T01:56:54.004Z,2.90
2023-02-26T01:57:53.964Z,3.50
2023-02-26T01:58:53.950Z,3.00
2023-02-26T01:59:54.004Z,3.00
2023-02-26T02:00:53.930Z,3.60
2023-02-26T02:01:53.962Z,3.90
2023-02-26T02:02:54.107Z,4.70
2023-02-26T02:03:53.921Z,4.50
2023-02-26T02:04:53.928Z,4.20
2023-02-26T02:05:53.916Z,5.70
2023-02-26T02:06:53.878Z,5.40
2023-02-26T02:07:53.869Z,5.30
2023-02-26T02:08:53.849Z,4.60
2023-02-26T02:09:53.898Z,3.30
2023-02-26T02:10:53.826Z,2.90
2023-02-26T02:11:53.820Z,2.60
2023-02-26T02:12:53.794Z,2.50
2023-02-26T02:13:53.804Z,2.60
2023-02-26T02:14:53.806Z,2.30
2023-02-26T02:15:53.768Z,2.30
2023-02-26T02:16:53.788Z,2.20
2023-02-26T02:17:53.740Z,2.70
2023-02-26T02:18:53.741Z,2.80
2023-02-26T02:19:53.733Z,2.00
2023-02-26T02:20:53.726Z,2.50
2023-02-26T02:21:53.745Z,2.40
2023-02-26T02:22:53.699Z,2.40
2023-02-26T02:23:53.684Z,2.80
2023-02-26T02:24:53.700Z,2.70
2023-02-26T02:25:53.656Z,2.70
2023-02-26T02:26:53.659Z,2.90
2023-02-26T02:27:53.664Z,2.70
2023-02-26T02:28:53.638Z,2.80
2023-02-26T02:29:53.656Z,3.20
2023-02-26T02:30:53.671Z,3.20
2023-02-26T02:31:53.791Z,3.30
2023-02-26T02:32:53.633Z,3.20
2023-02-26T02:33:53.560Z,2.90
2023-02-26T02:34:53.613Z,3.00
2023-02-26T02:35:53.546Z,2.40
2023-02-26T02:36:53.585Z,3.30
2023-02-26T02:37:53.516Z,2.90
2023-02-26T02:38:53.579Z,3.30
2023-02-26T02:39:53.508Z,3.40
2023-02-26T02:40:53.501Z,3.20
2023-02-26T02:41:53.502Z,3.00
2023-02-26T02:42:53.468Z,3.30
2023-02-26T02:43:53.488Z,3.30
2023-02-26T02:44:53.446Z,3.00
2023-02-26T02:45:54.226Z,2.80
2023-02-26T02:46:53.511Z,2.70
2023-02-26T02:47:53.405Z,2.80
2023-02-26T02:48:53.395Z,3.00
2023-02-26T02:49:53.395Z,2.50
2023-02-26T02:50:53.384Z,2.70
2023-02-26T02:51:53.360Z,3.00
2023-02-26T02:52:53.348Z,2.80
2023-02-26T02:53:53.339Z,2.90
2023-02-26T02:54:53.334Z,3.00
2023-02-26T02:55:53.340Z,2.80
2023-02-26T02:56:53.312Z,3.00
2023-02-26T02:57:53.300Z,2.40
2023-02-26T02:58:53.294Z,2.50
2023-02-26T02:59:53.281Z,2.90
2023-02-26T03:00:53.313Z,2.60
2023-02-26T03:01:53.257Z,3.00
2023-02-26T03:02:53.310Z,2.80
2023-02-26T03:03:53.235Z,2.90
2023-02-26T03:04:53.220Z,2.50
2023-02-26T03:05:53.235Z,2.70
2023-02-26T03:06:53.210Z,2.80
2023-02-26T03:07:53.194Z,2.30
2023-02-26T03:08:53.175Z,2.40
2023-02-26T03:09:53.173Z,2.30
2023-02-26T03:10:53.173Z,2.20
2023-02-26T03:11:53.145Z,2.30
2023-02-26T03:12:53.125Z,2.40
2023-02-26T03:13:53.127Z,2.00
2023-02-26T03:14:53.115Z,2.50
2023-02-26T03:15:53.116Z,2.50
2023-02-26T03:16:53.758Z,2.30
2023-02-26T03:17:53.172Z,2.50
2023-02-26T03:18:53.073Z,2.80
2023-02-26T03:19:53.082Z,2.30
2023-02-26T03:20:53.069Z,2.20
2023-02-26T03:21:53.046Z,2.40
2023-02-26T03:22:53.144Z,2.30
2023-02-26T03:23:53.021Z,2.50
2023-02-26T03:24:53.017Z,2.00
2023-02-26T03:25:53.030Z,2.10
2023-02-26T03:26:52.997Z,2.60
2023-02-26T03:27:52.977Z,2.10
2023-02-26T03:28:52.979Z,2.40
2023-02-26T03:29:52.957Z,2.40
2023-02-26T03:30:52.970Z,2.40
2023-02-26T03:31:53.046Z,2.30
2023-02-26T03:32:52.941Z,2.40
2023-02-26T03:33:52.936Z,2.80
2023-02-26T03:34:52.900Z,2.10
2023-02-26T03:35:52.912Z,2.20
2023-02-26T03:36:52.890Z,2.30
2023-02-26T03:37:52.870Z,2.50
2023-02-26T03:38:52.859Z,2.20
2023-02-26T03:39:52.844Z,2.40
2023-02-26T03:40:52.848Z,2.80
2023-02-26T03:41:52.829Z,2.40
2023-02-26T03:42:52.812Z,2.40
2023-02-26T03:43:52.801Z,2.70
2023-02-26T03:44:52.801Z,2.70
2023-02-26T03:45:52.807Z,2.60
2023-02-26T03:46:52.780Z,2.20
2023-02-26T03:47:52.763Z,2.30
2023-02-26T03:48:52.777Z,2.40
2023-02-26T03:49:52.742Z,2.20
2023-02-26T03:50:52.747Z,2.50
2023-02-26T03:51:52.717Z,2.30
2023-02-26T03:52:52.710Z,2.80
2023-02-26T03:53:52.695Z,2.60
2023-02-26T03:54:53.459Z,2.50
2023-02-26T03:55:52.687Z,2.30
2023-02-26T03:56:52.662Z,2.40
2023-02-26T03:57:52.649Z,2.20
2023-02-26T03:58:52.637Z,2.30
2023-02-26T03:59:52.621Z,2.20
2023-02-26T04:00:52.641Z,2.00
2023-02-26T04:01:52.611Z,2.40
2023-02-26T04:02:52.596Z,2.30
2023-02-26T04:03:52.660Z,2.00
2023-02-26T04:04:52.576Z,2.00
2023-02-26T04:05:52.583Z,2.10
2023-02-26T04:06:52.552Z,2.00
2023-02-26T04:07:52.533Z,1.50
2023-02-26T04:08:52.524Z,2.10
2023-02-26T04:09:52.522Z,1.90
2023-02-26T04:10:52.519Z,2.00
2023-02-26T04:11:52.519Z,2.00
2023-02-26T04:12:52.485Z,1.70
2023-02-26T04:13:52.492Z,1.90
2023-02-26T04:14:52.476Z,1.80
2023-02-26T04:15:52.466Z,2.10
2023-02-26T04:16:52.460Z,1.70
2023-02-26T04:17:52.428Z,1.80
2023-02-26T04:18:52.424Z,2.00
2023-02-26T04:19:52.421Z,2.00
2023-02-26T04:20:52.421Z,1.80
2023-02-26T04:21:52.395Z,1.90
2023-02-26T04:22:52.389Z,1.70
2023-02-26T04:23:52.372Z,2.20
2023-02-26T04:24:52.354Z,1.60
2023-02-26T04:25:52.362Z,2.00
2023-02-26T04:26:52.326Z,1.60
2023-02-26T04:27:52.326Z,1.50
2023-02-26T04:28:52.313Z,1.70
2023-02-26T04:29:52.308Z,1.90
2023-02-26T04:30:52.545Z,1.70
2023-02-26T04:31:52.381Z,1.30
2023-02-26T04:32:52.273Z,1.60
2023-02-26T04:33:52.259Z,1.80
2023-02-26T04:34:52.242Z,2.00
2023-02-26T04:35:52.251Z,1.70
2023-02-26T04:36:52.257Z,1.70
2023-02-26T04:37:52.207Z,1.90
2023-02-26T04:38:52.203Z,1.50
2023-02-26T04:39:52.182Z,1.60
2023-02-26T04:40:52.193Z,2.10
2023-02-26T04:41:52.166Z,1.80
2023-02-26T04:42:52.155Z,2.10
2023-02-26T04:43:52.146Z,2.60
2023-02-26T04:44:52.139Z,2.30
2023-02-26T04:45:52.230Z,2.40
2023-02-26T04:46:52.112Z,2.20
2023-02-26T04:47:52.097Z,2.30
2023-02-26T04:48:52.092Z,2.90
2023-02-26T04:49:52.074Z,2.90
2023-02-26T04:50:52.080Z,2.60
2023-02-26T04:51:52.078Z,2.50
2023-02-26T04:52:52.047Z,2.20
2023-02-26T04:53:52.038Z,2.50
2023-02-26T04:54:52.019Z,1.90
2023-02-26T04:55:52.553Z,2.20
2023-02-26T04:56:52.005Z,2.50
2023-02-26T04:57:51.992Z,1.80
2023-02-26T04:58:51.976Z,2.40
2023-02-26T04:59:51.961Z,2.10
2023-02-26T05:00:51.970Z,2.00
2023-02-26T05:01:52.059Z,2.10
2023-02-26T05:02:51.943Z,2.10
2023-02-26T05:03:51.928Z,1.80
2023-02-26T05:04:51.970Z,2.60
2023-02-26T05:05:51.916Z,2.00
2023-02-26T05:06:51.906Z,1.90
2023-02-26T05:07:51.878Z,2.20
2023-02-26T05:08:51.868Z,2.10
2023-02-26T05:09:51.862Z,1.90
2023-02-26T05:10:51.872Z,2.00
2023-02-26T05:11:51.841Z,1.90
2023-02-26T05:12:51.829Z,2.10
2023-02-26T05:13:51.824Z,1.90
2023-02-26T05:14:51.810Z,1.80
2023-02-26T05:15:51.845Z,1.90
2023-02-26T05:16:51.801Z,1.90
2023-02-26T05:17:51.777Z,1.70
2023-02-26T05:18:51.769Z,2.20
2023-02-26T05:19:51.764Z,2.40
2023-02-26T05:20:51.738Z,1.90
2023-02-26T05:21:51.745Z,1.90
2023-02-26T05:22:51.740Z,1.70
2023-02-26T05:23:51.718Z,2.00
2023-02-26T05:24:51.701Z,1.80
2023-02-26T05:25:51.704Z,2.00
2023-02-26T05:26:51.727Z,1.80
2023-02-26T05:27:51.664Z,1.70
2023-02-26T05:28:51.658Z,1.90
2023-02-26T05:29:51.642Z,1.90
2023-02-26T05:30:51.700Z,1.90
2023-02-26T05:31:51.767Z,2.10
2023-02-26T05:32:51.620Z,1.90
2023-02-26T05:33:51.594Z,1.90
2023-02-26T05:34:51.602Z,2.00
2023-02-26T05:35:51.571Z,2.00
2023-02-26T05:36:59.614Z,1.80
2023-02-26T05:37:51.557Z,1.90
2023-02-26T05:38:51.549Z,1.80
2023-02-26T05:39:51.533Z,1.80
2023-02-26T05:40:51.526Z,2.20
2023-02-26T05:41:51.532Z,2.00
2023-02-26T05:42:51.502Z,2.30
2023-02-26T05:43:51.496Z,3.00
2023-02-26T05:44:51.486Z,5.70
2023-02-26T05:45:51.475Z,5.20
2023-02-26T05:46:51.513Z,3.90
2023-02-26T05:47:51.460Z,4.30
2023-02-26T05:48:51.445Z,3.70
2023-02-26T05:49:51.423Z,3.60
2023-02-26T05:50:51.425Z,3.20
2023-02-26T05:51:51.434Z,2.40
2023-02-26T05:52:51.402Z,3.20
2023-02-26T05:53:51.400Z,2.80
2023-02-26T05:54:51.378Z,2.50
2023-02-26T05:55:51.363Z,2.40
2023-02-26T05:56:51.370Z,2.80
2023-02-26T05:57:51.347Z,4.80
2023-02-26T05:58:51.330Z,4.30
2023-02-26T05:59:51.327Z,3.20
2023-02-26T06:00:51.322Z,2.50
2023-02-26T06:01:51.364Z,2.60
2023-02-26T06:02:51.339Z,2.10
2023-02-26T06:03:51.272Z,2.30
2023-02-26T06:04:51.273Z,1.70
2023-02-26T06:05:51.245Z,1.80
2023-02-26T06:06:51.253Z,2.80
2023-02-26T06:07:51.262Z,2.10
2023-02-26T06:08:51.216Z,1.80
2023-02-26T06:09:51.208Z,1.80
2023-02-26T06:10:51.205Z,1.70
2023-02-26T06:11:51.205Z,1.80
2023-02-26T06:12:51.173Z,1.70
2023-02-26T06:13:51.174Z,2.00
2023-02-26T06:14:51.150Z,2.30
2023-02-26T06:15:51.144Z,1.70
2023-02-26T06:16:51.153Z,2.10
2023-02-26T06:17:51.124Z,2.20
2023-02-26T06:18:51.108Z,2.10
2023-02-26T06:19:51.089Z,1.80
2023-02-26T06:20:51.100Z,2.10
2023-02-26T06:21:51.099Z,2.00
2023-02-26T06:22:51.059Z,2.30
2023-02-26T06:23:51.052Z,1.70
2023-02-26T06:24:51.055Z,1.70
2023-02-26T06:25:51.042Z,1.80
2023-02-26T06:26:51.053Z,1.60
2023-02-26T06:27:51.042Z,2.80
2023-02-26T06:28:50.999Z,2.80
2023-02-26T06:29:50.993Z,2.10
2023-02-26T06:30:51.031Z,3.00
2023-02-26T06:31:51.197Z,2.10
2023-02-26T06:32:50.976Z,2.60
2023-02-26T06:33:50.946Z,3.00
2023-02-26T06:34:50.939Z,3.20
2023-02-26T06:35:50.921Z,4.30
2023-02-26T06:36:50.942Z,4.20
2023-02-26T06:37:50.919Z,4.10
2023-02-26T06:38:50.908Z,4.00
2023-02-26T06:39:50.914Z,3.70
2023-02-26T06:40:50.875Z,3.20
2023-02-26T06:41:50.889Z,2.70
2023-02-26T06:42:50.854Z,2.70
2023-02-26T06:43:50.843Z,3.20
2023-02-26T06:44:50.833Z,3.20
2023-02-26T06:45:50.856Z,3.50
2023-02-26T06:46:50.832Z,3.30
2023-02-26T06:47:50.800Z,3.00
2023-02-26T06:48:50.847Z,3.10
2023-02-26T06:49:50.783Z,2.50
2023-02-26T06:50:50.776Z,2.60
2023-02-26T06:51:50.771Z,2.40
2023-02-26T06:52:50.752Z,2.30
2023-02-26T06:53:50.735Z,3.10
2023-02-26T06:54:50.720Z,3.30
2023-02-26T06:55:50.712Z,2.70
2023-02-26T06:56:50.718Z,2.60
2023-02-26T06:57:50.680Z,2.30
2023-02-26T06:58:50.690Z,2.80
2023-02-26T06:59:50.674Z,2.30
2023-02-26T07:00:50.704Z,2.70
2023-02-26T07:01:50.672Z,3.20
2023-02-26T07:02:50.640Z,3.70
2023-02-26T07:03:50.621Z,4.40
2023-02-26T07:04:50.646Z,4.60
2023-02-26T07:05:50.602Z,4.10
2023-02-26T07:06:50.618Z,4.70
2023-02-26T07:07:50.576Z,5.10
2023-02-26T07:08:50.609Z,5.20
2023-02-26T07:09:50.550Z,5.20
2023-02-26T07:10:50.548Z,4.50
2023-02-26T07:11:50.567Z,4.40
2023-02-26T07:12:50.524Z,4.70
2023-02-26T07:13:50.512Z,3.40
2023-02-26T07:14:50.525Z,3.10
2023-02-26T07:15:50.501Z,2.60
2023-02-26T07:16:50.585Z,3.00
2023-02-26T07:17:50.471Z,3.20
2023-02-26T07:18:50.485Z,3.40
2023-02-26T07:19:50.450Z,3.70
2023-02-26T07:20:50.446Z,3.80
2023-02-26T07:21:50.447Z,4.10
2023-02-26T07:22:50.420Z,3.80
2023-02-26T07:23:50.409Z,3.10
2023-02-26T07:24:50.412Z,3.50
2023-02-26T07:25:50.394Z,3.30
2023-02-26T07:26:50.386Z,3.10
2023-02-26T07:27:50.363Z,3.70
2023-02-26T07:28:50.362Z,8.80
2023-02-26T07:29:50.347Z,9.50
2023-02-26T07:30:50.449Z,7.90
2023-02-26T07:31:50.520Z,5.50
2023-02-26T07:32:50.313Z,4.50
2023-02-26T07:33:50.302Z,4.40
2023-02-26T07:34:50.287Z,4.20
2023-02-26T07:35:50.285Z,3.90
2023-02-26T07:36:50.283Z,2.80
2023-02-26T07:37:50.253Z,2.70
2023-02-26T07:38:50.251Z,3.80
2023-02-26T07:39:50.230Z,4.10
2023-02-26T07:40:50.214Z,3.00
2023-02-26T07:41:50.221Z,3.70
2023-02-26T07:42:50.194Z,3.00
2023-02-26T07:43:50.178Z,3.20
2023-02-26T07:44:50.174Z,3.80
2023-02-26T07:45:50.287Z,3.10
2023-02-26T07:46:50.177Z,3.60
2023-02-26T07:47:50.143Z,3.00
2023-02-26T07:48:50.145Z,3.20
2023-02-26T07:49:50.127Z,2.80
2023-02-26T07:50:50.114Z,3.00
2023-02-26T07:51:50.118Z,3.10
2023-02-26T07:52:50.093Z,2.80
2023-02-26T07:53:50.073Z,3.40
2023-02-26T07:54:50.074Z,3.70
2023-02-26T07:55:50.087Z,3.50
2023-02-26T07:56:50.063Z,4.50
2023-02-26T07:57:50.034Z,4.10
2023-02-26T07:58:50.032Z,3.50
2023-02-26T07:59:50.013Z,3.40
2023-02-26T08:00:49.987Z,3.30
2023-02-26T08:01:50.063Z,3.70
2023-02-26T08:02:49.998Z,4.10
2023-02-26T08:03:50.002Z,4.40
2023-02-26T08:04:49.960Z,3.50
2023-02-26T08:05:49.948Z,3.10
2023-02-26T08:06:49.945Z,2.80
2023-02-26T08:07:49.916Z,2.90
2023-02-26T08:08:49.910Z,2.80
2023-02-26T08:09:49.887Z,2.90
2023-02-26T08:10:49.900Z,2.70
2023-02-26T08:11:49.896Z,3.10
2023-02-26T08:12:49.864Z,2.60
2023-02-26T08:13:49.848Z,2.80
2023-02-26T08:14:49.861Z,2.60
2023-02-26T08:15:49.880Z,3.80
2023-02-26T08:16:49.848Z,3.60
2023-02-26T08:17:49.808Z,3.00
2023-02-26T08:18:49.802Z,2.50
2023-02-26T08:19:49.787Z,2.60
2023-02-26T08:20:49.771Z,2.40
2023-02-26T08:21:50.827Z,2.40
2023-02-26T08:22:50.628Z,2.10
2023-02-26T08:23:50.695Z,2.40
2023-02-26T08:24:49.740Z,2.80
2023-02-26T08:25:49.717Z,2.80
2023-02-26T08:26:49.756Z,2.90
2023-02-26T08:27:49.702Z,2.90
2023-02-26T08:28:49.681Z,2.90
2023-02-26T08:29:49.711Z,2.50
2023-02-26T08:30:49.845Z,2.60
2023-02-26T08:31:49.767Z,2.40
2023-02-26T08:32:49.645Z,2.20
2023-02-26T08:33:49.663Z,2.60
2023-02-26T08:34:49.621Z,2.20
2023-02-26T08:35:49.611Z,2.20
2023-02-26T08:36:49.616Z,2.60
2023-02-26T08:37:49.614Z,2.20
2023-02-26T08:38:49.595Z,2.40
2023-02-26T08:39:49.585Z,2.10
2023-02-26T08:40:49.558Z,2.40
2023-02-26T08:41:49.572Z,3.00
2023-02-26T08:42:49.541Z,2.60
2023-02-26T08:43:49.536Z,2.80
2023-02-26T08:44:49.517Z,2.70
2023-02-26T08:45:49.506Z,2.60
2023-02-26T08:46:49.604Z,4.00
2023-02-26T08:47:56.647Z,3.00
2023-02-26T08:48:49.496Z,3.00
2023-02-26T08:49:49.456Z,2.80
2023-02-26T08:50:49.457Z,2.30
2023-02-26T08:51:49.491Z,2.60
2023-02-26T08:52:49.433Z,2.30
2023-02-26T08:53:49.420Z,2.20
2023-02-26T08:54:49.411Z,2.30
2023-02-26T08:55:49.407Z,2.20
2023-02-26T08:56:49.393Z,2.20
2023-02-26T08:57:49.381Z,1.90
2023-02-26T08:58:49.362Z,2.10
2023-02-26T08:59:49.364Z,1.70
2023-02-26T09:00:49.339Z,2.00
2023-02-26T09:01:49.363Z,2.20
2023-02-26T09:02:49.384Z,2.40
2023-02-26T09:03:49.320Z,2.50
2023-02-26T09:04:49.300Z,2.80
2023-02-26T09:05:49.295Z,2.60
2023-02-26T09:06:49.283Z,2.50
2023-02-26T09:07:49.294Z,1.70
2023-02-26T09:08:49.258Z,2.10
2023-02-26T09:09:49.267Z,2.40
2023-02-26T09:10:49.241Z,2.30
2023-02-26T09:11:49.230Z,1.90
2023-02-26T09:12:49.214Z,2.00
2023-02-26T09:13:49.203Z,1.90
2023-02-26T09:14:49.187Z,1.90
2023-02-26T09:15:49.170Z,1.90
2023-02-26T09:16:51.194Z,1.80
2023-02-26T09:17:49.160Z,2.10
2023-02-26T09:18:49.141Z,2.20
2023-02-26T09:19:49.227Z,2.40
2023-02-26T09:20:49.125Z,2.30
2023-02-26T09:21:49.129Z,2.10
2023-02-26T09:22:49.095Z,2.20
2023-02-26T09:23:49.089Z,2.20
2023-02-26T09:24:49.099Z,2.50
2023-02-26T09:25:49.061Z,2.30
2023-02-26T09:26:49.078Z,2.10
2023-02-26T09:27:49.047Z,2.10
2023-02-26T09:28:49.062Z,1.90
2023-02-26T09:29:49.025Z,1.50
2023-02-26T09:30:49.041Z,2.20
2023-02-26T09:31:49.191Z,2.50
2023-02-26T09:32:49.091Z,2.10
2023-02-26T09:33:48.983Z,1.50
2023-02-26T09:34:48.991Z,1.60
2023-02-26T09:35:48.956Z,1.90
2023-02-26T09:36:48.966Z,1.90
2023-02-26T09:37:48.966Z,1.80
2023-02-26T09:38:48.945Z,2.10
2023-02-26T09:39:48.916Z,2.50
2023-02-26T09:40:48.902Z,3.80
2023-02-26T09:41:48.887Z,3.50
2023-02-26T09:42:48.913Z,2.70
2023-02-26T09:43:48.873Z,2.30
2023-02-26T09:44:48.862Z,2.10
2023-02-26T09:45:48.895Z,3.10
2023-02-26T09:46:48.870Z,3.50
2023-02-26T09:47:48.843Z,2.10
2023-02-26T09:48:48.852Z,2.70
2023-02-26T09:49:48.822Z,2.60
2023-02-26T09:50:48.799Z,2.60
2023-02-26T09:51:50.180Z,2.80
2023-02-26T09:52:48.794Z,2.50
2023-02-26T09:53:48.754Z,3.10
2023-02-26T09:54:48.755Z,2.50
2023-02-26T09:55:48.735Z,3.80
2023-02-26T09:56:48.724Z,3.00
2023-02-26T09:57:48.768Z,3.00
2023-02-26T09:58:48.714Z,2.70
2023-02-26T09:59:48.706Z,1.60
2023-02-26T10:00:48.704Z,1.50
2023-02-26T10:01:48.742Z,1.90
2023-02-26T10:02:48.684Z,2.70
2023-02-26T10:03:48.681Z,1.50
2023-02-26T10:04:48.661Z,1.10
2023-02-26T10:05:48.633Z,1.80
2023-02-26T10:06:48.631Z,2.30
2023-02-26T10:07:48.635Z,2.00
2023-02-26T10:08:48.602Z,2.30
2023-02-26T10:09:48.594Z,3.30
2023-02-26T10:10:48.585Z,3.10
2023-02-26T10:11:48.566Z,2.40
2023-02-26T10:12:48.609Z,1.60
2023-02-26T10:13:57.112Z,1.40
2023-02-26T10:14:48.547Z,1.20
2023-02-26T10:15:48.538Z,1.10
2023-02-26T10:16:48.586Z,1.30
2023-02-26T10:17:48.521Z,1.20
2023-02-26T10:18:48.498Z,1.70
2023-02-26T10:19:48.481Z,2.10
2023-02-26T10:20:48.573Z,2.00
2023-02-26T10:21:48.464Z,2.20
2023-02-26T10:22:48.753Z,2.10
2023-02-26T10:23:48.452Z,2.30
2023-02-26T10:24:48.436Z,1.80
2023-02-26T10:25:48.417Z,1.80
2023-02-26T10:26:48.402Z,1.30
2023-02-26T10:27:48.449Z,1.50
2023-02-26T10:28:48.805Z,2.40
2023-02-26T10:29:48.402Z,2.40
2023-02-26T10:30:48.406Z,2.10
2023-02-26T10:31:48.414Z,2.20
2023-02-26T10:32:48.482Z,1.60
2023-02-26T10:33:48.322Z,1.30
2023-02-26T10:34:48.309Z,1.30
2023-02-26T10:35:48.300Z,1.50
2023-02-26T10:36:48.322Z,1.50
2023-02-26T10:37:48.302Z,1.70
2023-02-26T10:38:48.261Z,1.70
2023-02-26T10:39:48.296Z,1.50
2023-02-26T10:40:48.257Z,1.70
2023-02-26T10:41:48.237Z,1.80
2023-02-26T10:42:48.238Z,1.70
2023-02-26T10:43:48.259Z,1.60
2023-02-26T10:44:48.207Z,1.50
2023-02-26T10:45:48.289Z,1.50
2023-02-26T10:46:48.178Z,2.10
2023-02-26T10:47:48.195Z,1.90
2023-02-26T10:48:48.162Z,1.60
2023-02-26T10:49:48.184Z,1.10
2023-02-26T10:50:48.159Z,1.80
2023-02-26T10:51:48.123Z,1.60
2023-02-26T10:52:48.159Z,1.60
2023-02-26T10:53:48.107Z,1.50
2023-02-26T10:54:48.097Z,1.60
2023-02-26T10:55:48.255Z,1.70
2023-02-26T10:56:48.113Z,1.40
2023-02-26T10:57:48.076Z,1.50
2023-02-26T10:58:48.043Z,1.40
2023-02-26T10:59:48.054Z,1.30
2023-02-26T11:00:48.044Z,1.80
2023-02-26T11:01:48.050Z,1.20
2023-02-26T11:02:48.087Z,1.20
2023-02-26T11:03:48.003Z,1.50
2023-02-26T11:04:53.877Z,1.10
2023-02-26T11:05:47.991Z,1.10
2023-02-26T11:06:47.985Z,1.10
2023-02-26T11:07:47.965Z,1.10
2023-02-26T11:08:47.945Z,1.40
2023-02-26T11:09:47.940Z,1.60
2023-02-26T11:10:47.913Z,1.50
2023-02-26T11:11:48.662Z,1.20
2023-02-26T11:12:47.935Z,1.30
2023-02-26T11:13:47.909Z,1.70
2023-02-26T11:14:47.881Z,1.30
2023-02-26T11:15:47.934Z,1.40
2023-02-26T11:16:47.956Z,1.00
2023-02-26T11:17:47.878Z,1.30
2023-02-26T11:18:47.839Z,1.30
2023-02-26T11:19:47.839Z,1.10
2023-02-26T11:20:47.818Z,1.20
2023-02-26T11:21:47.812Z,1.60
2023-02-26T11:22:47.835Z,1.50
2023-02-26T11:23:47.774Z,1.50
2023-02-26T11:24:47.778Z,1.70
2023-02-26T11:25:47.757Z,1.20
2023-02-26T11:26:47.739Z,1.10
2023-02-26T11:27:47.752Z,1.00
2023-02-26T11:28:47.726Z,1.00
2023-02-26T11:29:47.732Z,1.00
2023-02-26T11:30:47.811Z,0.80
2023-02-26T11:31:47.818Z,1.00
2023-02-26T11:32:47.740Z,1.00
2023-02-26T11:33:47.659Z,0.90
2023-02-26T11:34:47.682Z,1.10
2023-02-26T11:35:47.651Z,0.90
2023-02-26T11:36:47.640Z,1.00
2023-02-26T11:37:47.688Z,1.20
2023-02-26T11:38:47.612Z,0.90
2023-02-26T11:39:47.613Z,1.50
2023-02-26T11:40:47.583Z,1.10
2023-02-26T11:41:47.578Z,1.10
2023-02-26T11:42:47.575Z,1.00
2023-02-26T11:43:47.561Z,1.10
2023-02-26T11:44:47.560Z,0.80
2023-02-26T11:45:47.569Z,1.00
2023-02-26T11:46:47.520Z,1.10
2023-02-26T11:47:47.544Z,1.20
2023-02-26T11:48:47.529Z,0.90
2023-02-26T11:49:47.485Z,1.00
2023-02-26T11:50:47.471Z,1.00
2023-02-26T11:51:47.506Z,1.20
2023-02-26T11:52:47.507Z,0.70
2023-02-26T11:53:47.448Z,1.30
2023-02-26T11:54:47.432Z,0.90
2023-02-26T11:55:47.429Z,0.90
2023-02-26T11:56:48.222Z,1.00
2023-02-26T11:57:55.171Z,1.50
2023-02-26T11:58:47.395Z,1.60
2023-02-26T11:59:47.394Z,1.30
2023-02-26T12:00:47.368Z,1.80
2023-02-26T12:01:47.413Z,2.60
2023-02-26T12:02:47.397Z,1.50
2023-02-26T12:03:47.461Z,1.30
2023-02-26T12:04:47.337Z,1.10
2023-02-26T12:05:47.296Z,1.20
2023-02-26T12:06:47.307Z,1.30
2023-02-26T12:07:47.335Z,1.50
2023-02-26T12:08:47.285Z,1.60
2023-02-26T12:09:47.266Z,2.20
2023-02-26T12:10:47.273Z,2.90
2023-02-26T12:11:47.254Z,2.50
2023-02-26T12:12:47.252Z,2.50
2023-02-26T12:13:47.212Z,2.90
2023-02-26T12:14:47.210Z,2.60
2023-02-26T12:15:47.238Z,2.40
2023-02-26T12:16:47.196Z,2.70
2023-02-26T12:17:47.213Z,1.90
2023-02-26T12:18:47.189Z,2.50
2023-02-26T12:19:47.159Z,2.40
2023-02-26T12:20:47.157Z,1.80
2023-02-26T12:21:47.184Z,1.80
2023-02-26T12:22:47.161Z,1.40
2023-02-26T12:23:47.151Z,1.40
2023-02-26T12:24:47.826Z,1.70
2023-02-26T12:25:47.119Z,1.30
2023-02-26T12:26:47.107Z,1.40
2023-02-26T12:27:47.148Z,1.40
2023-02-26T12:28:47.096Z,1.40
2023-02-26T12:29:47.061Z,1.10
2023-02-26T12:30:47.077Z,1.50
2023-02-26T12:31:47.180Z,1.40
2023-02-26T12:32:47.104Z,1.30
2023-02-26T12:33:47.011Z,1.30
2023-02-26T12:34:47.011Z,1.20
2023-02-26T12:35:46.995Z,1.10
2023-02-26T12:36:49.314Z,1.40
2023-02-26T12:37:46.992Z,1.30
2023-02-26T12:38:46.960Z,1.20
2023-02-26T12:39:46.968Z,1.20
2023-02-26T12:40:46.980Z,1.00
2023-02-26T12:41:46.955Z,1.30
2023-02-26T12:42:46.997Z,1.10
2023-02-26T12:43:46.907Z,1.40
2023-02-26T12:44:46.940Z,1.60
2023-02-26T12:45:46.893Z,1.70
2023-02-26T12:46:46.955Z,1.80
2023-02-26T12:47:46.893Z,2.00
2023-02-26T12:48:46.837Z,2.50
2023-02-26T12:49:46.872Z,1.80
2023-02-26T12:50:46.842Z,1.80
2023-02-26T12:51:46.840Z,1.70
2023-02-26T12:52:46.865Z,2.10
2023-02-26T12:53:46.819Z,2.10
2023-02-26T12:54:46.812Z,1.90
2023-02-26T12:55:46.788Z,2.30
2023-02-26T12:56:46.760Z,2.00
2023-02-26T12:57:46.798Z,2.00
2023-02-26T12:58:46.769Z,2.30
2023-02-26T12:59:46.738Z,2.30
2023-02-26T13:00:46.765Z,2.20
2023-02-26T13:01:59.586Z,1.90
2023-02-26T13:02:46.743Z,1.80
2023-02-26T13:03:46.719Z,2.10
2023-02-26T13:04:46.664Z,1.50
2023-02-26T13:05:46.674Z,1.60
2023-02-26T13:06:46.670Z,1.90
2023-02-26T13:07:47.552Z,2.60
2023-02-26T13:08:46.618Z,1.40
2023-02-26T13:09:46.608Z,1.50
2023-02-26T13:10:46.609Z,1.20
2023-02-26T13:11:46.613Z,1.20
2023-02-26T13:12:46.609Z,1.50
2023-02-26T13:13:46.568Z,1.60
2023-02-26T13:14:46.563Z,1.80
2023-02-26T13:15:46.541Z,1.50
2023-02-26T13:16:46.571Z,1.60
2023-02-26T13:17:46.540Z,1.70
2023-02-26T13:18:46.558Z,1.40